createdAt,value
2018-09-29T00:01:27.841Z,12.27
2018-09-29T00:03:57.052Z,11.97
2018-09-29T00:06:26.523Z,13.80
2018-09-29T00:08:57.433Z,13.00
2018-09-29T00:11:27.125Z,13.53
2018-09-29T00:13:56.638Z,14.37
2018-09-29T00:16:25.876Z,14.60
2018-09-29T00:18:55.648Z,14.20
2018-09-29T00:21:28.346Z,13.57
2018-09-29T00:23:57.845Z,15.03
2018-09-29T00:26:27.319Z,14.17
2018-09-29T00:28:56.628Z,15.37
2018-09-29T00:31:26.261Z,13.60
2018-09-29T00:33:55.243Z,15.70
2018-09-29T00:36:24.296Z,15.23
2018-09-29T00:38:53.650Z,15.60
2018-09-29T00:41:23.386Z,15.83
2018-09-29T00:43:52.323Z,14.97
2018-09-29T00:46:22.745Z,15.60
2018-09-29T00:48:52.313Z,14.63
2018-09-29T00:51:21.587Z,14.10
2018-09-29T00:53:50.722Z,15.87
2018-09-29T00:56:19.748Z,14.10
2018-09-29T00:58:48.288Z,16.30
2018-09-29T01:01:18.692Z,15.93
2018-09-29T01:03:47.135Z,15.33
2018-09-29T01:06:16.584Z,14.23
2018-09-29T01:08:45.884Z,14.07
2018-09-29T01:11:15.829Z,14.67
2018-09-29T01:13:43.784Z,14.73
2018-09-29T01:16:12.152Z,16.20
2018-09-29T01:18:40.141Z,13.20
2018-09-29T01:21:09.785Z,13.00
2018-09-29T01:23:38.008Z,14.17
2018-09-29T01:26:06.158Z,14.07
2018-09-29T01:28:34.820Z,14.57
2018-09-29T01:31:02.868Z,13.70
2018-09-29T01:33:30.922Z,12.93
2018-09-29T01:35:59.097Z,13.70
2018-09-29T01:38:27.518Z,13.67
2018-09-29T01:40:55.753Z,12.20
2018-09-29T01:43:24.584Z,11.80
2018-09-29T01:45:53.207Z,13.37
2018-09-29T01:48:22.362Z,11.07
2018-09-29T01:50:50.883Z,11.53
2018-09-29T01:53:19.286Z,10.67
2018-09-29T01:55:47.739Z,10.43
2018-09-29T01:58:17.052Z,9.00
2018-09-29T02:00:45.486Z,10.43
2018-09-29T02:03:13.712Z,8.10
2018-09-29T02:05:42.613Z,8.87
2018-09-29T02:08:10.745Z,7.60
2018-09-29T02:10:38.695Z,7.70
2018-09-29T02:13:06.673Z,8.60
2018-09-29T02:15:35.037Z,6.93
2018-09-29T02:18:03.513Z,7.60
2018-09-29T02:20:31.793Z,6.97
2018-09-29T02:22:59.969Z,8.23
2018-09-29T02:25:28.341Z,8.53
2018-09-29T02:27:56.637Z,8.37
2018-09-29T02:30:24.950Z,7.43
2018-09-29T02:32:53.162Z,7.53
2018-09-29T02:35:21.787Z,6.90
2018-09-29T02:37:50.283Z,7.07
2018-09-29T02:40:19.163Z,6.57
2018-09-29T02:42:48.110Z,6.60
2018-09-29T02:45:16.516Z,7.17
2018-09-29T02:47:50.511Z,6.53
2018-09-29T02:50:19.341Z,6.00
2018-09-29T02:52:48.269Z,6.00
2018-09-29T02:55:16.659Z,7.33
2018-09-29T02:57:44.594Z,6.90
2018-09-29T03:00:13.715Z,5.87
2018-09-29T03:02:41.753Z,6.20
2018-09-29T03:05:09.702Z,5.57
2018-09-29T03:07:37.647Z,6.33
2018-09-29T03:10:05.635Z,6.17
2018-09-29T03:12:33.809Z,7.57
2018-09-29T03:15:03.939Z,5.67
2018-09-29T03:17:31.893Z,5.80
2018-09-29T03:19:59.878Z,7.63
2018-09-29T03:22:28.798Z,6.73
2018-09-29T03:24:56.971Z,6.90
2018-09-29T03:27:25.156Z,5.83
2018-09-29T03:29:53.414Z,5.93
2018-09-29T03:32:22.320Z,7.00
2018-09-29T03:34:52.217Z,6.43
2018-09-29T03:37:20.427Z,6.23
2018-09-29T03:39:49.531Z,6.73
2018-09-29T03:42:18.313Z,5.77
2018-09-29T03:44:47.355Z,5.77
2018-09-29T03:47:15.713Z,6.33
2018-09-29T03:49:43.987Z,6.73
2018-09-29T03:52:12.096Z,7.20
2018-09-29T03:54:40.232Z,6.10
2018-09-29T03:57:08.167Z,6.00
2018-09-29T03:59:36.289Z,6.00
2018-09-29T04:02:05.418Z,6.00
2018-09-29T04:04:34.053Z,6.00
2018-09-29T04:07:02.064Z,8.30
2018-09-29T04:09:30.149Z,6.27
2018-09-29T04:11:58.477Z,6.30
2018-09-29T04:14:27.281Z,5.67
2018-09-29T04:16:55.536Z,6.13
2018-09-29T04:19:23.941Z,6.07
2018-09-29T04:21:52.510Z,5.57
2018-09-29T04:24:21.974Z,6.00
2018-09-29T04:26:50.542Z,5.27
2018-09-29T04:29:18.825Z,5.37
2018-09-29T04:31:47.615Z,5.60
2018-09-29T04:34:16.493Z,5.33
2018-09-29T04:36:44.713Z,4.50
2018-09-29T04:39:13.904Z,5.20
2018-09-29T04:41:41.843Z,4.53
2018-09-29T04:44:10.764Z,4.33
2018-09-29T04:46:39.296Z,4.60
2018-09-29T04:49:07.707Z,4.87
2018-09-29T04:51:35.775Z,4.23
2018-09-29T04:54:03.838Z,5.43
2018-09-29T04:56:32.733Z,5.40
2018-09-29T04:59:00.950Z,5.37
2018-09-29T05:01:29.089Z,5.73
2018-09-29T05:03:57.249Z,4.07
2018-09-29T05:06:25.923Z,4.23
2018-09-29T05:08:54.232Z,5.27
2018-09-29T05:11:23.113Z,4.37
2018-09-29T05:13:51.907Z,4.60
2018-09-29T05:16:20.995Z,3.37
2018-09-29T05:18:50.192Z,4.87
2018-09-29T05:21:19.770Z,3.90
2018-09-29T05:23:49.045Z,3.90
2018-09-29T05:26:17.696Z,4.07
2018-09-29T05:28:46.193Z,3.60
2018-09-29T05:31:15.538Z,2.37
2018-09-29T05:33:43.640Z,3.90
2018-09-29T05:36:11.968Z,3.23
2018-09-29T05:38:40.160Z,3.40
2018-09-29T05:41:08.105Z,2.63
2018-09-29T05:43:36.435Z,4.03
2018-09-29T05:46:04.508Z,3.33
2018-09-29T05:48:32.549Z,2.97
2018-09-29T05:51:00.734Z,3.43
2018-09-29T05:53:29.302Z,2.60
2018-09-29T05:55:57.395Z,3.20
2018-09-29T05:58:25.518Z,3.30
2018-09-29T06:00:53.677Z,2.73
2018-09-29T06:03:22.346Z,4.13
2018-09-29T06:05:51.143Z,2.37
2018-09-29T06:08:20.187Z,2.67
2018-09-29T06:10:48.755Z,2.43
2018-09-29T06:13:16.903Z,2.47
2018-09-29T06:15:45.040Z,3.17
2018-09-29T06:18:13.300Z,3.60
2018-09-29T06:20:42.033Z,3.10
2018-09-29T06:23:10.074Z,3.17
2018-09-29T06:25:38.434Z,2.00
2018-09-29T06:28:12.510Z,2.20
2018-09-29T06:30:41.904Z,2.63
2018-09-29T06:33:09.952Z,2.40
2018-09-29T06:35:39.321Z,2.30
2018-09-29T06:38:07.497Z,3.60
2018-09-29T06:40:37.103Z,3.83
2018-09-29T06:43:05.905Z,3.53
2018-09-29T06:45:34.198Z,3.03
2018-09-29T06:48:02.279Z,2.33
2018-09-29T06:50:30.415Z,2.67
2018-09-29T06:52:59.813Z,2.93
2018-09-29T06:55:28.193Z,2.83
2018-09-29T06:57:56.459Z,3.67
2018-09-29T07:00:24.868Z,3.60
2018-09-29T07:02:53.538Z,3.40
2018-09-29T07:05:22.015Z,3.07
2018-09-29T07:07:50.894Z,2.10
2018-09-29T07:10:19.714Z,2.90
2018-09-29T07:12:47.996Z,2.80
2018-09-29T07:15:16.287Z,3.27
2018-09-29T07:17:45.759Z,3.20
2018-09-29T07:20:14.326Z,2.87
2018-09-29T07:22:42.380Z,2.57
2018-09-29T07:25:10.509Z,3.30
2018-09-29T07:27:38.494Z,3.37
2018-09-29T07:30:06.586Z,3.20
2018-09-29T07:32:34.715Z,2.60
2018-09-29T07:35:03.190Z,3.53
2018-09-29T07:37:31.210Z,2.57
2018-09-29T07:39:59.353Z,3.83
2018-09-29T07:42:29.890Z,3.53
2018-09-29T07:44:58.026Z,3.43
2018-09-29T07:47:26.174Z,3.00
2018-09-29T07:49:54.255Z,3.20
2018-09-29T07:52:22.986Z,2.23
2018-09-29T07:54:51.424Z,3.77
2018-09-29T07:57:19.796Z,3.40
2018-09-29T07:59:47.979Z,4.10
2018-09-29T08:02:16.072Z,3.80
2018-09-29T08:04:44.331Z,3.70
2018-09-29T08:07:12.458Z,3.70
2018-09-29T08:09:40.564Z,4.47
2018-09-29T08:12:08.712Z,4.20
2018-09-29T08:14:36.908Z,3.70
2018-09-29T08:17:05.249Z,3.80
2018-09-29T08:19:33.237Z,3.90
2018-09-29T08:22:01.269Z,3.87
2018-09-29T08:24:29.491Z,3.27
2018-09-29T08:26:57.876Z,2.60
2018-09-29T08:29:26.571Z,2.87
2018-09-29T08:31:55.028Z,2.80
2018-09-29T08:34:23.288Z,3.70
2018-09-29T08:36:52.230Z,3.33
2018-09-29T08:39:20.879Z,3.17
2018-09-29T08:41:49.694Z,3.13
2018-09-29T08:44:18.328Z,3.73
2018-09-29T08:46:47.593Z,3.10
2018-09-29T08:49:16.207Z,3.10
2018-09-29T08:51:45.911Z,3.50
2018-09-29T08:54:14.075Z,2.83
2018-09-29T08:56:44.394Z,2.70
2018-09-29T08:59:12.821Z,2.37
2018-09-29T09:01:41.090Z,3.37
2018-09-29T09:04:09.249Z,3.43
2018-09-29T09:06:37.637Z,3.60
2018-09-29T09:09:08.732Z,4.30
2018-09-29T09:11:37.138Z,3.17
2018-09-29T09:14:05.413Z,3.33
2018-09-29T09:16:34.294Z,3.80
2018-09-29T09:19:02.442Z,3.00
2018-09-29T09:21:30.682Z,4.90
2018-09-29T09:24:00.164Z,3.23
2018-09-29T09:26:28.750Z,3.50
2018-09-29T09:28:57.262Z,4.37
2018-09-29T09:31:25.887Z,4.00
2018-09-29T09:33:54.461Z,4.23
2018-09-29T09:36:23.173Z,3.20
2018-09-29T09:38:51.673Z,5.00
2018-09-29T09:41:20.910Z,3.83
2018-09-29T09:43:50.343Z,3.83
2018-09-29T09:46:19.650Z,4.13
2018-09-29T09:48:49.074Z,3.93
2018-09-29T09:51:20.100Z,4.53
2018-09-29T09:53:49.102Z,4.43
2018-09-29T09:56:17.463Z,4.90
2018-09-29T09:58:46.022Z,5.20
2018-09-29T10:01:19.597Z,4.57
2018-09-29T10:03:48.492Z,4.97
2018-09-29T10:06:17.160Z,4.53
2018-09-29T10:08:46.703Z,4.23
2018-09-29T10:11:15.068Z,4.60
2018-09-29T10:13:43.089Z,5.20
2018-09-29T10:16:12.242Z,5.90
2018-09-29T10:18:40.706Z,4.23
2018-09-29T10:21:11.982Z,5.60
2018-09-29T10:23:40.499Z,4.60
2018-09-29T10:26:09.471Z,4.80
2018-09-29T10:28:40.426Z,3.93
2018-09-29T10:31:09.017Z,5.67
2018-09-29T10:33:37.259Z,4.27
2018-09-29T10:36:05.819Z,5.43
2018-09-29T10:38:34.355Z,5.40
2018-09-29T10:41:04.886Z,5.57
2018-09-29T10:43:33.773Z,5.80
2018-09-29T10:46:03.917Z,4.60
2018-09-29T10:48:34.012Z,6.10
2018-09-29T10:51:03.120Z,3.70
2018-09-29T10:53:33.693Z,4.03
2018-09-29T10:56:02.615Z,6.00
2018-09-29T10:58:32.464Z,4.50
2018-09-29T11:01:02.045Z,5.90
2018-09-29T11:03:30.879Z,7.00
2018-09-29T11:06:00.725Z,6.80
2018-09-29T11:08:30.473Z,7.03
2018-09-29T11:10:59.953Z,6.73
2018-09-29T11:13:31.017Z,6.30
2018-09-29T11:16:02.109Z,6.27
2018-09-29T11:18:31.410Z,6.63
2018-09-29T11:21:01.381Z,6.57
2018-09-29T11:23:31.844Z,5.40
2018-09-29T11:26:01.516Z,5.83
2018-09-29T11:28:32.068Z,7.83
2018-09-29T11:31:02.386Z,6.27
2018-09-29T11:33:31.963Z,5.90
2018-09-29T11:36:00.909Z,5.63
2018-09-29T11:38:30.027Z,5.63
2018-09-29T11:40:59.441Z,6.77
2018-09-29T11:43:28.346Z,5.10
2018-09-29T11:45:57.257Z,7.17
2018-09-29T11:48:26.928Z,5.97
2018-09-29T11:50:56.631Z,6.07
2018-09-29T11:53:27.204Z,5.43
2018-09-29T11:55:56.159Z,5.77
2018-09-29T11:58:25.304Z,6.40
2018-09-29T12:00:54.920Z,6.30
2018-09-29T12:03:24.876Z,5.70
2018-09-29T12:05:54.593Z,6.50
2018-09-29T12:08:24.121Z,6.33
2018-09-29T12:10:53.729Z,7.13
2018-09-29T12:13:23.349Z,5.67
2018-09-29T12:15:53.167Z,5.50
2018-09-29T12:18:22.291Z,6.00
2018-09-29T12:20:54.487Z,6.07
2018-09-29T12:23:29.970Z,7.37
2018-09-29T12:26:02.523Z,5.00
2018-09-29T12:28:30.687Z,4.97
2018-09-29T12:30:59.591Z,4.97
2018-09-29T12:33:28.325Z,5.73
2018-09-29T12:35:56.853Z,4.07
2018-09-29T12:38:25.272Z,4.33
2018-09-29T12:40:54.559Z,5.93
2018-09-29T12:43:22.902Z,5.10
2018-09-29T12:45:52.679Z,5.13
2018-09-29T12:48:21.374Z,5.40
2018-09-29T12:50:49.712Z,5.50
2018-09-29T12:56:14.806Z,4.77
2018-09-29T12:59:09.378Z,5.80
2018-09-29T13:01:38.317Z,5.30
2018-09-29T13:04:11.518Z,4.53
2018-09-29T13:06:41.129Z,4.50
2018-09-29T13:09:09.366Z,5.17
2018-09-29T13:11:37.658Z,4.83
2018-09-29T13:14:05.943Z,5.33
2018-09-29T13:16:34.063Z,4.47
2018-09-29T13:19:02.325Z,4.03
2018-09-29T13:21:30.658Z,4.73
2018-09-29T13:23:58.994Z,4.50
2018-09-29T13:26:27.278Z,4.47
2018-09-29T13:28:55.571Z,4.37
2018-09-29T13:31:23.868Z,4.60
2018-09-29T13:33:51.965Z,3.47
2018-09-29T13:36:20.415Z,4.47
2018-09-29T13:38:52.635Z,4.20
2018-09-29T13:41:22.004Z,4.10
2018-09-29T13:43:50.558Z,4.30
2018-09-29T13:46:18.930Z,4.80
2018-09-29T13:48:47.260Z,5.00
2018-09-29T13:51:16.941Z,4.30
2018-09-29T13:53:52.699Z,4.53
2018-09-29T13:56:21.028Z,4.47
2018-09-29T13:58:50.324Z,3.63
2018-09-29T14:01:18.794Z,3.20
2018-09-29T14:03:47.103Z,3.67
2018-09-29T14:06:15.251Z,3.80
2018-09-29T14:08:43.862Z,4.07
2018-09-29T14:11:11.958Z,4.07
2018-09-29T14:13:40.060Z,4.60
2018-09-29T14:16:08.582Z,3.80
2018-09-29T14:18:36.573Z,3.10
2018-09-29T14:21:04.641Z,3.33
2018-09-29T14:23:33.459Z,4.07
2018-09-29T14:26:01.851Z,3.50
2018-09-29T14:28:31.260Z,3.00
2018-09-29T14:30:59.607Z,3.37
2018-09-29T14:33:27.931Z,4.27
2018-09-29T14:35:56.472Z,3.10
2018-09-29T14:38:25.056Z,3.10
2018-09-29T14:40:53.258Z,3.93
2018-09-29T14:43:21.790Z,4.07
2018-09-29T14:45:51.019Z,3.90
2018-09-29T14:48:21.665Z,5.10
2018-09-29T14:50:49.848Z,4.73
2018-09-29T14:53:19.789Z,3.83
2018-09-29T14:55:49.081Z,3.87
2018-09-29T14:58:17.463Z,3.73
2018-09-29T15:00:46.968Z,4.47
2018-09-29T15:03:15.171Z,3.93
2018-09-29T15:05:43.520Z,4.30
2018-09-29T15:08:12.000Z,3.13
2018-09-29T15:10:40.332Z,3.90
2018-09-29T15:13:08.455Z,3.60
2018-09-29T15:15:38.307Z,3.80
2018-09-29T15:18:07.250Z,4.00
2018-09-29T15:20:36.075Z,3.10
2018-09-29T15:23:05.151Z,4.27
2018-09-29T15:25:33.892Z,3.10
2018-09-29T15:28:02.325Z,4.50
2018-09-29T15:30:30.848Z,3.57
2018-09-29T15:32:59.131Z,3.93
2018-09-29T15:35:27.223Z,4.30
2018-09-29T15:37:58.249Z,3.23
2018-09-29T15:40:27.019Z,5.73
2018-09-29T15:43:05.409Z,4.13
2018-09-29T15:45:39.325Z,4.47
2018-09-29T15:48:08.487Z,3.80
2018-09-29T15:50:36.810Z,3.87
2018-09-29T15:53:04.810Z,4.60
2018-09-29T15:55:33.167Z,3.53
2018-09-29T15:58:01.983Z,4.53
2018-09-29T16:00:30.560Z,3.13
2018-09-29T16:02:58.764Z,4.07
2018-09-29T16:05:27.152Z,3.63
2018-09-29T16:07:55.465Z,3.73
2018-09-29T16:10:24.226Z,3.60
2018-09-29T16:12:53.146Z,4.60
2018-09-29T16:15:21.874Z,3.37
2018-09-29T16:17:50.485Z,3.43
2018-09-29T16:20:21.530Z,3.73
2018-09-29T16:22:49.995Z,3.97
2018-09-29T16:25:18.343Z,3.67
2018-09-29T16:27:47.448Z,4.17
2018-09-29T16:30:16.152Z,3.50
2018-09-29T16:32:44.567Z,3.43
2018-09-29T16:35:12.951Z,3.83
2018-09-29T16:37:41.552Z,3.13
2018-09-29T16:40:09.859Z,3.50
2018-09-29T16:42:38.084Z,3.10
2018-09-29T16:45:06.289Z,2.70
2018-09-29T16:47:34.551Z,3.10
2018-09-29T16:50:02.801Z,4.17
2018-09-29T16:52:31.291Z,4.17
2018-09-29T16:54:59.552Z,2.90
2018-09-29T16:57:27.825Z,4.20
2018-09-29T17:02:40.082Z,2.50
2018-09-29T17:05:08.839Z,3.60
2018-09-29T17:07:39.309Z,3.13
2018-09-29T17:10:07.563Z,3.37
2018-09-29T17:12:35.909Z,3.90
2018-09-29T17:15:04.223Z,2.60
2018-09-29T17:17:36.399Z,2.80
2018-09-29T17:20:06.835Z,3.23
2018-09-29T17:25:16.468Z,3.63
2018-09-29T17:27:52.458Z,3.73
2018-09-29T17:30:21.212Z,4.30
2018-09-29T17:32:58.579Z,4.13
2018-09-29T17:35:27.125Z,3.67
2018-09-29T17:40:36.430Z,3.80
2018-09-29T17:43:14.531Z,4.03
2018-09-29T17:45:42.991Z,2.70
2018-09-29T17:48:19.024Z,3.70
2018-09-29T17:50:47.466Z,3.77
2018-09-29T17:53:18.131Z,3.33
2018-09-29T17:55:46.441Z,5.80
2018-09-29T17:58:20.433Z,5.17
2018-09-29T18:00:48.800Z,5.57
2018-09-29T18:03:17.089Z,4.47
2018-09-29T18:05:49.402Z,4.17
2018-09-29T18:08:17.717Z,3.10
2018-09-29T18:10:46.860Z,3.50
2018-09-29T18:13:15.066Z,3.13
2018-09-29T18:15:48.130Z,3.80
2018-09-29T18:18:16.953Z,2.43
2018-09-29T18:20:46.492Z,3.70
2018-09-29T18:23:14.832Z,3.83
2018-09-29T18:25:43.300Z,3.13
2018-09-29T18:28:11.552Z,3.50
2018-09-29T18:30:43.151Z,3.00
2018-09-29T18:33:11.507Z,2.77
2018-09-29T18:35:41.338Z,2.63
2018-09-29T18:38:09.459Z,3.47
2018-09-29T18:40:39.385Z,3.10
2018-09-29T18:43:07.749Z,3.30
2018-09-29T18:45:38.062Z,3.10
2018-09-29T18:48:28.929Z,2.30
2018-09-29T18:50:59.895Z,2.83
2018-09-29T18:53:28.183Z,3.83
2018-09-29T18:56:00.751Z,2.47
2018-09-29T18:58:28.817Z,3.43
2018-09-29T19:00:59.836Z,3.17
2018-09-29T19:03:28.043Z,2.73
2018-09-29T19:05:57.133Z,2.80
2018-09-29T19:08:25.366Z,3.27
2018-09-29T19:10:54.098Z,2.93
2018-09-29T19:13:25.481Z,2.70
2018-09-29T19:15:54.095Z,2.33
2018-09-29T19:18:28.461Z,2.43
2018-09-29T19:23:34.746Z,2.90
2018-09-29T19:26:04.542Z,2.93
2018-09-29T19:31:07.438Z,2.40
2018-09-29T19:33:35.748Z,2.80
2018-09-29T19:36:04.194Z,2.93
2018-09-29T19:38:32.890Z,3.20
2018-09-29T19:41:01.060Z,2.50
2018-09-29T19:43:29.230Z,3.47
2018-09-29T19:45:57.559Z,2.50
2018-09-29T19:48:25.649Z,3.23
2018-09-29T19:50:54.242Z,3.07
2018-09-29T19:53:24.851Z,3.27
2018-09-29T19:55:53.158Z,3.50
2018-09-29T19:58:21.603Z,3.03
2018-09-29T20:00:50.278Z,3.60
2018-09-29T20:03:19.466Z,2.87
2018-09-29T20:05:47.920Z,3.40
2018-09-29T20:08:16.485Z,3.60
2018-09-29T20:10:45.120Z,2.87
2018-09-29T20:13:14.512Z,3.10
2018-09-29T20:15:42.754Z,3.43
2018-09-29T20:18:10.934Z,3.77
2018-09-29T20:20:39.202Z,3.10
2018-09-29T20:23:07.389Z,3.73
2018-09-29T20:25:37.106Z,2.77
2018-09-29T20:28:05.360Z,3.60
2018-09-29T20:30:33.633Z,5.00
2018-09-29T20:33:02.105Z,3.27
2018-09-29T20:35:31.342Z,3.20
2018-09-29T20:37:59.662Z,4.60
2018-09-29T20:40:29.075Z,2.90
2018-09-29T20:42:57.174Z,2.60
2018-09-29T20:45:25.498Z,2.83
2018-09-29T20:47:54.208Z,2.47
2018-09-29T20:50:22.732Z,2.70
2018-09-29T20:52:51.051Z,3.57
2018-09-29T20:55:19.478Z,2.60
2018-09-29T20:57:49.696Z,3.37
2018-09-29T21:00:17.904Z,3.77
2018-09-29T21:02:46.137Z,3.00
2018-09-29T21:05:15.502Z,2.00
2018-09-29T21:07:45.582Z,4.20
2018-09-29T21:10:19.089Z,2.93
2018-09-29T21:12:47.364Z,2.63
2018-09-29T21:15:18.214Z,2.13
2018-09-29T21:17:47.957Z,2.43
2018-09-29T21:20:16.335Z,2.50
2018-09-29T21:22:44.742Z,2.40
2018-09-29T21:25:13.268Z,3.00
2018-09-29T21:27:41.421Z,2.87
2018-09-29T21:30:10.510Z,3.23
2018-09-29T21:32:40.485Z,2.80
2018-09-29T21:35:08.541Z,2.53
2018-09-29T21:37:36.752Z,3.07
2018-09-29T21:40:04.985Z,3.23
2018-09-29T21:42:33.021Z,2.30
2018-09-29T21:45:01.087Z,2.30
2018-09-29T21:47:29.300Z,2.60
2018-09-29T21:49:57.388Z,2.47
2018-09-29T21:52:25.999Z,2.70
2018-09-29T21:54:54.085Z,2.40
2018-09-29T21:57:22.230Z,3.70
2018-09-29T21:59:50.737Z,3.47
2018-09-29T22:02:20.183Z,2.57
2018-09-29T22:04:48.338Z,3.27
2018-09-29T22:07:16.474Z,2.57
2018-09-29T22:09:44.637Z,2.67
2018-09-29T22:12:12.869Z,3.37
2018-09-29T22:14:40.882Z,2.43
2018-09-29T22:17:09.005Z,3.13
2018-09-29T22:19:37.156Z,3.37
2018-09-29T22:22:05.524Z,3.47
2018-09-29T22:24:33.476Z,2.60
2018-09-29T22:27:01.734Z,2.80
2018-09-29T22:29:31.787Z,2.60
2018-09-29T22:32:01.173Z,2.33
2018-09-29T22:34:29.312Z,2.80
2018-09-29T22:36:58.127Z,2.40
2018-09-29T22:39:26.248Z,2.17
2018-09-29T22:41:54.837Z,2.40
2018-09-29T22:44:23.238Z,2.30
2018-09-29T22:46:51.588Z,3.50
2018-09-29T22:49:20.574Z,2.23
2018-09-29T22:51:48.932Z,3.17
2018-09-29T22:54:16.986Z,2.50
2018-09-29T22:56:45.106Z,1.50
2018-09-29T22:59:13.179Z,2.50
2018-09-29T23:01:41.190Z,2.50
2018-09-29T23:04:09.312Z,2.67
2018-09-29T23:06:37.277Z,2.87
2018-09-29T23:09:07.468Z,2.50
2018-09-29T23:11:35.473Z,2.60
2018-09-29T23:14:03.545Z,3.23
2018-09-29T23:16:31.534Z,3.33
2018-09-29T23:18:59.686Z,2.30
2018-09-29T23:21:28.078Z,2.67
2018-09-29T23:23:56.207Z,2.40
2018-09-29T23:26:24.466Z,2.80
2018-09-29T23:28:54.039Z,2.87
2018-09-29T23:31:23.012Z,3.00
2018-09-29T23:33:51.827Z,3.03
2018-09-29T23:36:20.430Z,2.67
2018-09-29T23:38:50.540Z,2.77
2018-09-29T23:41:19.549Z,2.43
2018-09-29T23:43:48.130Z,2.37
2018-09-29T23:46:16.265Z,3.13
2018-09-29T23:48:44.602Z,2.17
2018-09-29T23:51:12.656Z,2.37
2018-09-29T23:53:40.641Z,3.17
2018-09-29T23:56:08.690Z,2.97
2018-09-29T23:58:36.768Z,2.23
